sensor_id;sensor_type;location;lat;lon;timestamp;temperature;humidity
7240;DHT22;3661;53.288;10.458;2022-11-21T00:02:20;-1.90;99.90
7240;DHT22;3661;53.288;10.458;2022-11-21T00:04:52;-1.90;99.90
7240;DHT22;3661;53.288;10.458;2022-11-21T00:07:24;-1.90;99.90
7240;DHT22;3661;53.288;10.458;2022-11-21T00:09:56;-1.90;99.90
7240;DHT22;3661;53.288;10.458;2022-11-21T00:12:30;-1.90;99.90
7240;DHT22;3661;53.288;10.458;2022-11-21T00:15:02;-1.90;99.90
7240;DHT22;3661;53.288;10.458;2022-11-21T00:17:34;-1.90;99.90
7240;DHT22;3661;53.288;10.458;2022-11-21T00:20:08;-1.90;99.90
7240;DHT22;3661;53.288;10.458;2022-11-21T00:22:40;-1.90;99.90
7240;DHT22;3661;53.288;10.458;2022-11-21T00:25:12;-1.90;99.90
7240;DHT22;3661;53.288;10.458;2022-11-21T00:27:47;-1.90;99.90
7240;DHT22;3661;53.288;10.458;2022-11-21T00:30:19;-1.90;99.90
7240;DHT22;3661;53.288;10.458;2022-11-21T00:32:51;-1.90;99.90
7240;DHT22;3661;53.288;10.458;2022-11-21T00:35:23;-1.80;99.90
7240;DHT22;3661;53.288;10.458;2022-11-21T00:37:55;-1.80;99.90
7240;DHT22;3661;53.288;10.458;2022-11-21T00:40:28;-1.80;99.90
7240;DHT22;3661;53.288;10.458;2022-11-21T00:43:01;-1.80;99.90
7240;DHT22;3661;53.288;10.458;2022-11-21T00:45:33;-1.80;99.90
7240;DHT22;3661;53.288;10.458;2022-11-21T00:48:06;-1.80;99.90
7240;DHT22;3661;53.288;10.458;2022-11-21T00:50:38;-1.80;99.90
7240;DHT22;3661;53.288;10.458;2022-11-21T00:53:10;-1.80;99.90
7240;DHT22;3661;53.288;10.458;2022-11-21T00:55:43;-1.80;99.90
7240;DHT22;3661;53.288;10.458;2022-11-21T00:58:16;-1.80;99.90
7240;DHT22;3661;53.288;10.458;2022-11-21T01:00:48;-1.80;99.90
7240;DHT22;3661;53.288;10.458;2022-11-21T01:03:24;-1.80;99.90
7240;DHT22;3661;53.288;10.458;2022-11-21T01:06:00;-1.80;99.90
7240;DHT22;3661;53.288;10.458;2022-11-21T01:08:35;-1.80;99.90
7240;DHT22;3661;53.288;10.458;2022-11-21T01:11:10;-1.80;99.90
7240;DHT22;3661;53.288;10.458;2022-11-21T01:13:44;-1.80;99.90
7240;DHT22;3661;53.288;10.458;2022-11-21T01:16:19;-1.80;99.90
7240;DHT22;3661;53.288;10.458;2022-11-21T01:18:52;-1.70;99.90
7240;DHT22;3661;53.288;10.458;2022-11-21T01:21:27;-1.70;99.90
7240;DHT22;3661;53.288;10.458;2022-11-21T01:24:00;-1.70;99.90
7240;DHT22;3661;53.288;10.458;2022-11-21T01:26:32;-1.70;99.90
7240;DHT22;3661;53.288;10.458;2022-11-21T01:29:06;-1.70;99.90
7240;DHT22;3661;53.288;10.458;2022-11-21T01:31:38;-1.70;99.90
7240;DHT22;3661;53.288;10.458;2022-11-21T01:34:11;-1.70;99.90
7240;DHT22;3661;53.288;10.458;2022-11-21T01:36:44;-1.70;99.90
7240;DHT22;3661;53.288;10.458;2022-11-21T01:39:16;-1.70;99.90
7240;DHT22;3661;53.288;10.458;2022-11-21T01:41:48;-1.70;99.90
7240;DHT22;3661;53.288;10.458;2022-11-21T01:44:23;-1.70;99.90
7240;DHT22;3661;53.288;10.458;2022-11-21T01:46:57;-1.70;99.90
7240;DHT22;3661;53.288;10.458;2022-11-21T01:49:31;-1.70;99.90
7240;DHT22;3661;53.288;10.458;2022-11-21T01:52:07;-1.70;99.90
7240;DHT22;3661;53.288;10.458;2022-11-21T01:54:42;-1.70;99.90
7240;DHT22;3661;53.288;10.458;2022-11-21T01:57:19;-1.70;99.90
7240;DHT22;3661;53.288;10.458;2022-11-21T01:59:57;-1.70;99.90
7240;DHT22;3661;53.288;10.458;2022-11-21T02:02:32;-1.70;99.90
7240;DHT22;3661;53.288;10.458;2022-11-21T02:05:08;-1.70;99.90
7240;DHT22;3661;53.288;10.458;2022-11-21T02:07:44;-1.70;99.90
7240;DHT22;3661;53.288;10.458;2022-11-21T02:10:18;-1.70;99.90
7240;DHT22;3661;53.288;10.458;2022-11-21T02:12:51;-1.70;99.90
7240;DHT22;3661;53.288;10.458;2022-11-21T02:15:27;-1.70;99.90
7240;DHT22;3661;53.288;10.458;2022-11-21T02:18:00;-1.70;99.90
7240;DHT22;3661;53.288;10.458;2022-11-21T02:20:32;-1.70;99.90
7240;DHT22;3661;53.288;10.458;2022-11-21T02:23:09;-1.70;99.90
7240;DHT22;3661;53.288;10.458;2022-11-21T02:25:45;-1.70;99.90
7240;DHT22;3661;53.288;10.458;2022-11-21T02:28:19;-1.70;99.90
7240;DHT22;3661;53.288;10.458;2022-11-21T02:30:53;-1.70;99.90
7240;DHT22;3661;53.288;10.458;2022-11-21T02:33:25;-1.70;99.90
7240;DHT22;3661;53.288;10.458;2022-11-21T02:35:59;-1.70;99.90
7240;DHT22;3661;53.288;10.458;2022-11-21T02:38:34;-1.70;99.90
7240;DHT22;3661;53.288;10.458;2022-11-21T02:41:13;-1.70;99.90
7240;DHT22;3661;53.288;10.458;2022-11-21T02:43:51;-1.70;99.90
7240;DHT22;3661;53.288;10.458;2022-11-21T02:46:26;-1.70;99.90
7240;DHT22;3661;53.288;10.458;2022-11-21T02:48:58;-1.70;99.90
7240;DHT22;3661;53.288;10.458;2022-11-21T02:51:31;-1.70;99.90
7240;DHT22;3661;53.288;10.458;2022-11-21T02:54:03;-1.70;99.90
7240;DHT22;3661;53.288;10.458;2022-11-21T02:56:37;-1.70;99.90
7240;DHT22;3661;53.288;10.458;2022-11-21T02:59:09;-1.70;99.90
7240;DHT22;3661;53.288;10.458;2022-11-21T03:01:41;-1.70;99.90
7240;DHT22;3661;53.288;10.458;2022-11-21T03:04:13;-1.70;99.90
7240;DHT22;3661;53.288;10.458;2022-11-21T03:06:45;-1.70;99.90
7240;DHT22;3661;53.288;10.458;2022-11-21T03:09:18;-1.60;99.90
7240;DHT22;3661;53.288;10.458;2022-11-21T03:11:51;-1.70;99.90
7240;DHT22;3661;53.288;10.458;2022-11-21T03:14:23;-1.60;99.90
7240;DHT22;3661;53.288;10.458;2022-11-21T03:16:55;-1.60;99.90
7240;DHT22;3661;53.288;10.458;2022-11-21T03:19:28;-1.60;99.90
7240;DHT22;3661;53.288;10.458;2022-11-21T03:22:00;-1.60;99.90
7240;DHT22;3661;53.288;10.458;2022-11-21T03:24:33;-1.60;99.90
7240;DHT22;3661;53.288;10.458;2022-11-21T03:27:07;-1.60;99.90
7240;DHT22;3661;53.288;10.458;2022-11-21T03:29:39;-1.60;99.90
7240;DHT22;3661;53.288;10.458;2022-11-21T03:32:11;-1.60;99.90
7240;DHT22;3661;53.288;10.458;2022-11-21T03:34:43;-1.60;99.90
7240;DHT22;3661;53.288;10.458;2022-11-21T03:37:16;-1.60;99.90
7240;DHT22;3661;53.288;10.458;2022-11-21T03:39:48;-1.60;99.90
7240;DHT22;3661;53.288;10.458;2022-11-21T03:42:21;-1.60;99.90
7240;DHT22;3661;53.288;10.458;2022-11-21T03:44:54;-1.60;99.90
7240;DHT22;3661;53.288;10.458;2022-11-21T03:47:26;-1.60;99.90
7240;DHT22;3661;53.288;10.458;2022-11-21T03:49:58;-1.60;99.90
7240;DHT22;3661;53.288;10.458;2022-11-21T03:52:30;-1.60;99.90
7240;DHT22;3661;53.288;10.458;2022-11-21T03:55:03;-1.60;99.90
7240;DHT22;3661;53.288;10.458;2022-11-21T03:57:39;-1.60;99.90
7240;DHT22;3661;53.288;10.458;2022-11-21T04:00:13;-1.60;99.90
7240;DHT22;3661;53.288;10.458;2022-11-21T04:02:48;-1.60;99.90
7240;DHT22;3661;53.288;10.458;2022-11-21T04:05:20;-1.60;99.90
7240;DHT22;3661;53.288;10.458;2022-11-21T04:07:53;-1.60;99.90
7240;DHT22;3661;53.288;10.458;2022-11-21T04:10:26;-1.60;99.90
7240;DHT22;3661;53.288;10.458;2022-11-21T04:12:59;-1.60;99.90
7240;DHT22;3661;53.288;10.458;2022-11-21T04:15:31;-1.60;99.90
7240;DHT22;3661;53.288;10.458;2022-11-21T04:18:04;-1.60;99.90
7240;DHT22;3661;53.288;10.458;2022-11-21T04:20:36;-1.60;99.90
7240;DHT22;3661;53.288;10.458;2022-11-21T04:23:14;-1.60;99.90
7240;DHT22;3661;53.288;10.458;2022-11-21T04:26:04;-1.60;99.90
7240;DHT22;3661;53.288;10.458;2022-11-21T04:28:37;-1.60;99.90
7240;DHT22;3661;53.288;10.458;2022-11-21T04:31:10;-1.60;99.90
7240;DHT22;3661;53.288;10.458;2022-11-21T04:33:42;-1.60;99.90
7240;DHT22;3661;53.288;10.458;2022-11-21T04:36:14;-1.60;99.90
7240;DHT22;3661;53.288;10.458;2022-11-21T04:38:46;-1.60;99.90
7240;DHT22;3661;53.288;10.458;2022-11-21T04:41:18;-1.60;99.90
7240;DHT22;3661;53.288;10.458;2022-11-21T04:43:53;-1.60;99.90
7240;DHT22;3661;53.288;10.458;2022-11-21T04:46:25;-1.60;99.90
7240;DHT22;3661;53.288;10.458;2022-11-21T04:48:57;-1.60;99.90
7240;DHT22;3661;53.288;10.458;2022-11-21T04:51:30;-1.60;99.90
7240;DHT22;3661;53.288;10.458;2022-11-21T04:54:02;-1.60;99.90
7240;DHT22;3661;53.288;10.458;2022-11-21T04:56:36;-1.60;99.90
7240;DHT22;3661;53.288;10.458;2022-11-21T04:59:10;-1.60;99.90
7240;DHT22;3661;53.288;10.458;2022-11-21T05:01:42;-1.60;99.90
7240;DHT22;3661;53.288;10.458;2022-11-21T05:04:14;-1.60;99.90
7240;DHT22;3661;53.288;10.458;2022-11-21T05:06:47;-1.60;99.90
7240;DHT22;3661;53.288;10.458;2022-11-21T05:09:19;-1.60;99.90
7240;DHT22;3661;53.288;10.458;2022-11-21T05:11:51;-1.60;99.90
7240;DHT22;3661;53.288;10.458;2022-11-21T05:14:43;-1.60;99.90
7240;DHT22;3661;53.288;10.458;2022-11-21T05:17:17;-1.60;99.90
7240;DHT22;3661;53.288;10.458;2022-11-21T05:19:49;-1.60;99.90
7240;DHT22;3661;53.288;10.458;2022-11-21T05:22:22;-1.60;99.90
7240;DHT22;3661;53.288;10.458;2022-11-21T05:24:54;-1.60;99.90
7240;DHT22;3661;53.288;10.458;2022-11-21T05:27:26;-1.60;99.90
7240;DHT22;3661;53.288;10.458;2022-11-21T05:30:00;-1.60;99.90
7240;DHT22;3661;53.288;10.458;2022-11-21T05:32:32;-1.60;99.90
7240;DHT22;3661;53.288;10.458;2022-11-21T05:35:05;-1.70;99.90
7240;DHT22;3661;53.288;10.458;2022-11-21T05:37:38;-1.60;99.90
7240;DHT22;3661;53.288;10.458;2022-11-21T05:40:10;-1.70;99.90
7240;DHT22;3661;53.288;10.458;2022-11-21T05:42:43;-1.70;99.90
7240;DHT22;3661;53.288;10.458;2022-11-21T05:45:34;-1.70;99.90
7240;DHT22;3661;53.288;10.458;2022-11-21T05:48:07;-1.70;99.90
7240;DHT22;3661;53.288;10.458;2022-11-21T05:50:39;-1.70;99.90
7240;DHT22;3661;53.288;10.458;2022-11-21T05:53:13;-1.70;99.90
7240;DHT22;3661;53.288;10.458;2022-11-21T05:55:46;-1.70;99.90
7240;DHT22;3661;53.288;10.458;2022-11-21T05:58:18;-1.70;99.90
7240;DHT22;3661;53.288;10.458;2022-11-21T06:00:56;-1.70;99.90
7240;DHT22;3661;53.288;10.458;2022-11-21T06:03:32;-1.70;99.90
7240;DHT22;3661;53.288;10.458;2022-11-21T06:06:13;-1.70;99.90
7240;DHT22;3661;53.288;10.458;2022-11-21T06:08:45;-1.70;99.90
7240;DHT22;3661;53.288;10.458;2022-11-21T06:11:18;-1.70;99.90
7240;DHT22;3661;53.288;10.458;2022-11-21T06:13:51;-1.70;99.90
7240;DHT22;3661;53.288;10.458;2022-11-21T06:16:25;-1.70;99.90
7240;DHT22;3661;53.288;10.458;2022-11-21T06:18:57;-1.70;99.90
7240;DHT22;3661;53.288;10.458;2022-11-21T06:21:29;-1.70;99.90
7240;DHT22;3661;53.288;10.458;2022-11-21T06:24:04;-1.70;99.90
7240;DHT22;3661;53.288;10.458;2022-11-21T06:26:38;-1.70;99.90
7240;DHT22;3661;53.288;10.458;2022-11-21T06:29:10;-1.70;99.90
7240;DHT22;3661;53.288;10.458;2022-11-21T06:31:44;-1.70;99.90
7240;DHT22;3661;53.288;10.458;2022-11-21T06:34:17;-1.80;99.90
7240;DHT22;3661;53.288;10.458;2022-11-21T06:36:50;-1.80;99.90
7240;DHT22;3661;53.288;10.458;2022-11-21T06:39:22;-1.80;99.90
7240;DHT22;3661;53.288;10.458;2022-11-21T06:41:54;-1.80;99.90
7240;DHT22;3661;53.288;10.458;2022-11-21T06:44:29;-1.80;99.90
7240;DHT22;3661;53.288;10.458;2022-11-21T06:47:02;-1.80;99.90
7240;DHT22;3661;53.288;10.458;2022-11-21T06:49:34;-1.80;99.90
7240;DHT22;3661;53.288;10.458;2022-11-21T06:52:07;-1.80;99.90
7240;DHT22;3661;53.288;10.458;2022-11-21T06:54:39;-1.80;99.90
7240;DHT22;3661;53.288;10.458;2022-11-21T06:57:13;-1.80;99.90
7240;DHT22;3661;53.288;10.458;2022-11-21T06:59:45;-1.90;99.90
7240;DHT22;3661;53.288;10.458;2022-11-21T07:02:18;-1.90;99.90
7240;DHT22;3661;53.288;10.458;2022-11-21T07:04:50;-1.90;99.90
7240;DHT22;3661;53.288;10.458;2022-11-21T07:07:23;-1.90;99.90
7240;DHT22;3661;53.288;10.458;2022-11-21T07:09:55;-1.90;99.90
7240;DHT22;3661;53.288;10.458;2022-11-21T07:12:27;-1.90;99.90
7240;DHT22;3661;53.288;10.458;2022-11-21T07:15:16;-1.90;99.90
7240;DHT22;3661;53.288;10.458;2022-11-21T07:17:50;-1.90;99.90
7240;DHT22;3661;53.288;10.458;2022-11-21T07:20:22;-1.90;99.90
7240;DHT22;3661;53.288;10.458;2022-11-21T07:22:55;-1.90;99.90
7240;DHT22;3661;53.288;10.458;2022-11-21T07:25:27;-1.90;99.90
7240;DHT22;3661;53.288;10.458;2022-11-21T07:28:00;-1.90;99.90
7240;DHT22;3661;53.288;10.458;2022-11-21T07:30:32;-2.00;99.90
7240;DHT22;3661;53.288;10.458;2022-11-21T07:33:07;-2.00;99.90
7240;DHT22;3661;53.288;10.458;2022-11-21T07:35:39;-2.00;99.90
7240;DHT22;3661;53.288;10.458;2022-11-21T07:38:12;-2.00;99.90
7240;DHT22;3661;53.288;10.458;2022-11-21T07:40:46;-1.90;99.90
7240;DHT22;3661;53.288;10.458;2022-11-21T07:43:19;-2.00;99.90
7240;DHT22;3661;53.288;10.458;2022-11-21T07:45:51;-2.00;99.90
7240;DHT22;3661;53.288;10.458;2022-11-21T07:48:25;-1.90;99.90
7240;DHT22;3661;53.288;10.458;2022-11-21T07:50:57;-1.90;99.90
7240;DHT22;3661;53.288;10.458;2022-11-21T07:53:30;-1.90;99.90
7240;DHT22;3661;53.288;10.458;2022-11-21T07:56:02;-1.90;99.90
7240;DHT22;3661;53.288;10.458;2022-11-21T07:58:35;-1.90;99.90
7240;DHT22;3661;53.288;10.458;2022-11-21T08:01:08;-1.80;99.90
7240;DHT22;3661;53.288;10.458;2022-11-21T08:03:42;-1.90;99.90
7240;DHT22;3661;53.288;10.458;2022-11-21T08:06:14;-1.80;99.90
7240;DHT22;3661;53.288;10.458;2022-11-21T08:08:50;-1.80;99.90
7240;DHT22;3661;53.288;10.458;2022-11-21T08:11:23;-1.80;99.90
7240;DHT22;3661;53.288;10.458;2022-11-21T08:13:56;-1.80;99.90
7240;DHT22;3661;53.288;10.458;2022-11-21T08:16:29;-1.80;99.90
7240;DHT22;3661;53.288;10.458;2022-11-21T08:19:04;-1.80;99.90
7240;DHT22;3661;53.288;10.458;2022-11-21T08:21:36;-1.70;99.90
7240;DHT22;3661;53.288;10.458;2022-11-21T08:24:09;-1.70;99.90
7240;DHT22;3661;53.288;10.458;2022-11-21T08:26:44;-1.70;99.90
7240;DHT22;3661;53.288;10.458;2022-11-21T08:29:17;-1.70;99.90
7240;DHT22;3661;53.288;10.458;2022-11-21T08:31:49;-1.70;99.90
7240;DHT22;3661;53.288;10.458;2022-11-21T08:34:23;-1.70;99.90
7240;DHT22;3661;53.288;10.458;2022-11-21T08:36:55;-1.70;99.90
7240;DHT22;3661;53.288;10.458;2022-11-21T08:39:29;-1.60;99.90
7240;DHT22;3661;53.288;10.458;2022-11-21T08:42:01;-1.60;99.90
7240;DHT22;3661;53.288;10.458;2022-11-21T08:44:34;-1.60;99.90
7240;DHT22;3661;53.288;10.458;2022-11-21T08:47:06;-1.60;99.90
7240;DHT22;3661;53.288;10.458;2022-11-21T08:49:40;-1.60;99.90
7240;DHT22;3661;53.288;10.458;2022-11-21T08:52:12;-1.60;99.90
7240;DHT22;3661;53.288;10.458;2022-11-21T08:54:44;-1.60;99.90
7240;DHT22;3661;53.288;10.458;2022-11-21T08:57:16;-1.60;99.90
7240;DHT22;3661;53.288;10.458;2022-11-21T08:59:48;-1.60;99.90
7240;DHT22;3661;53.288;10.458;2022-11-21T09:02:21;-1.60;99.90
7240;DHT22;3661;53.288;10.458;2022-11-21T09:04:54;-1.60;99.90
7240;DHT22;3661;53.288;10.458;2022-11-21T09:07:26;-1.50;99.90
7240;DHT22;3661;53.288;10.458;2022-11-21T09:09:59;-1.50;99.90
7240;DHT22;3661;53.288;10.458;2022-11-21T09:12:31;-1.50;99.90
7240;DHT22;3661;53.288;10.458;2022-11-21T09:15:03;-1.50;99.90
7240;DHT22;3661;53.288;10.458;2022-11-21T09:17:53;-1.50;99.90
7240;DHT22;3661;53.288;10.458;2022-11-21T09:20:40;-1.50;99.90
7240;DHT22;3661;53.288;10.458;2022-11-21T09:23:15;-1.40;99.90
7240;DHT22;3661;53.288;10.458;2022-11-21T09:25:47;-1.40;99.90
7240;DHT22;3661;53.288;10.458;2022-11-21T09:28:21;-1.40;99.90
7240;DHT22;3661;53.288;10.458;2022-11-21T09:30:53;-1.30;99.90
7240;DHT22;3661;53.288;10.458;2022-11-21T09:33:25;-1.30;99.90
7240;DHT22;3661;53.288;10.458;2022-11-21T09:35:59;-1.30;99.90
7240;DHT22;3661;53.288;10.458;2022-11-21T09:38:32;-1.20;99.90
7240;DHT22;3661;53.288;10.458;2022-11-21T09:41:14;-1.20;99.90
7240;DHT22;3661;53.288;10.458;2022-11-21T09:44:09;-1.20;99.90
7240;DHT22;3661;53.288;10.458;2022-11-21T09:46:46;-1.10;99.90
7240;DHT22;3661;53.288;10.458;2022-11-21T09:49:24;-1.10;99.90
7240;DHT22;3661;53.288;10.458;2022-11-21T09:51:58;-1.00;99.90
7240;DHT22;3661;53.288;10.458;2022-11-21T09:54:32;-1.00;99.90
7240;DHT22;3661;53.288;10.458;2022-11-21T09:57:07;-0.90;99.90
7240;DHT22;3661;53.288;10.458;2022-11-21T09:59:41;-0.90;99.90
7240;DHT22;3661;53.288;10.458;2022-11-21T10:02:19;-0.80;99.90
7240;DHT22;3661;53.288;10.458;2022-11-21T10:04:52;-0.80;99.90
7240;DHT22;3661;53.288;10.458;2022-11-21T10:07:34;-0.70;99.90
7240;DHT22;3661;53.288;10.458;2022-11-21T10:10:32;-0.60;99.90
7240;DHT22;3661;53.288;10.458;2022-11-21T10:13:18;-0.50;99.90
7240;DHT22;3661;53.288;10.458;2022-11-21T10:15:58;-0.40;99.90
7240;DHT22;3661;53.288;10.458;2022-11-21T10:18:51;-0.40;99.90
7240;DHT22;3661;53.288;10.458;2022-11-21T10:21:48;-0.30;99.90
7240;DHT22;3661;53.288;10.458;2022-11-21T10:24:38;-0.20;99.90
7240;DHT22;3661;53.288;10.458;2022-11-21T10:27:14;-0.20;99.90
7240;DHT22;3661;53.288;10.458;2022-11-21T10:29:50;-0.10;99.90
7240;DHT22;3661;53.288;10.458;2022-11-21T10:32:26;-0.10;99.90
7240;DHT22;3661;53.288;10.458;2022-11-21T10:35:03;-0.10;99.90
7240;DHT22;3661;53.288;10.458;2022-11-21T10:37:37;0.00;99.90
7240;DHT22;3661;53.288;10.458;2022-11-21T10:40:23;0.10;99.90
7240;DHT22;3661;53.288;10.458;2022-11-21T10:43:00;0.20;99.90
7240;DHT22;3661;53.288;10.458;2022-11-21T10:45:54;0.20;99.90
7240;DHT22;3661;53.288;10.458;2022-11-21T10:48:25;0.40;99.90
7240;DHT22;3661;53.288;10.458;2022-11-21T10:51:16;0.50;99.90
7240;DHT22;3661;53.288;10.458;2022-11-21T10:54:03;0.60;99.90
7240;DHT22;3661;53.288;10.458;2022-11-21T10:56:57;0.80;99.90
7240;DHT22;3661;53.288;10.458;2022-11-21T10:59:30;0.90;99.90
7240;DHT22;3661;53.288;10.458;2022-11-21T11:02:24;1.10;99.90
7240;DHT22;3661;53.288;10.458;2022-11-21T11:05:16;1.20;99.90
7240;DHT22;3661;53.288;10.458;2022-11-21T11:07:59;1.40;99.90
7240;DHT22;3661;53.288;10.458;2022-11-21T11:10:33;1.60;99.90
7240;DHT22;3661;53.288;10.458;2022-11-21T11:13:15;1.70;99.90
7240;DHT22;3661;53.288;10.458;2022-11-21T11:16:14;1.90;99.90
7240;DHT22;3661;53.288;10.458;2022-11-21T11:18:55;2.00;99.90
7240;DHT22;3661;53.288;10.458;2022-11-21T11:21:29;2.20;99.90
7240;DHT22;3661;53.288;10.458;2022-11-21T11:24:21;2.30;99.90
7240;DHT22;3661;53.288;10.458;2022-11-21T11:26:58;2.50;99.90
7240;DHT22;3661;53.288;10.458;2022-11-21T11:29:32;2.60;99.90
7240;DHT22;3661;53.288;10.458;2022-11-21T11:32:14;2.70;99.90
7240;DHT22;3661;53.288;10.458;2022-11-21T11:34:56;2.90;99.90
7240;DHT22;3661;53.288;10.458;2022-11-21T11:37:34;3.00;99.90
7240;DHT22;3661;53.288;10.458;2022-11-21T11:40:16;3.10;99.90
7240;DHT22;3661;53.288;10.458;2022-11-21T11:43:12;3.30;99.90
7240;DHT22;3661;53.288;10.458;2022-11-21T11:46:33;3.40;99.90
7240;DHT22;3661;53.288;10.458;2022-11-21T11:49:31;3.50;99.90
7240;DHT22;3661;53.288;10.458;2022-11-21T11:52:30;3.60;99.90
7240;DHT22;3661;53.288;10.458;2022-11-21T11:55:05;3.60;99.90
7240;DHT22;3661;53.288;10.458;2022-11-21T11:57:39;3.70;99.90
7240;DHT22;3661;53.288;10.458;2022-11-21T12:00:26;3.80;99.90
7240;DHT22;3661;53.288;10.458;2022-11-21T12:03:05;3.80;99.90
7240;DHT22;3661;53.288;10.458;2022-11-21T12:05:53;3.90;99.90
7240;DHT22;3661;53.288;10.458;2022-11-21T12:08:34;3.90;99.90
7240;DHT22;3661;53.288;10.458;2022-11-21T12:11:18;4.00;99.90
7240;DHT22;3661;53.288;10.458;2022-11-21T12:14:17;4.10;99.90
7240;DHT22;3661;53.288;10.458;2022-11-21T12:17:06;4.10;99.90
7240;DHT22;3661;53.288;10.458;2022-11-21T12:19:41;4.20;99.90
7240;DHT22;3661;53.288;10.458;2022-11-21T12:22:13;4.20;99.90
7240;DHT22;3661;53.288;10.458;2022-11-21T12:24:45;4.30;99.90
7240;DHT22;3661;53.288;10.458;2022-11-21T12:27:27;4.30;99.90
7240;DHT22;3661;53.288;10.458;2022-11-21T12:30:24;4.40;99.90
7240;DHT22;3661;53.288;10.458;2022-11-21T12:33:04;4.40;99.90
7240;DHT22;3661;53.288;10.458;2022-11-21T12:36:07;4.50;99.90
7240;DHT22;3661;53.288;10.458;2022-11-21T12:41:53;4.60;99.90
7240;DHT22;3661;53.288;10.458;2022-11-21T12:44:58;4.60;99.90
7240;DHT22;3661;53.288;10.458;2022-11-21T12:47:53;4.70;99.90
7240;DHT22;3661;53.288;10.458;2022-11-21T12:50:54;4.70;99.90
7240;DHT22;3661;53.288;10.458;2022-11-21T12:53:50;4.70;99.90
7240;DHT22;3661;53.288;10.458;2022-11-21T12:56:48;4.70;99.90
7240;DHT22;3661;53.288;10.458;2022-11-21T12:59:23;4.70;99.90
7240;DHT22;3661;53.288;10.458;2022-11-21T13:02:01;4.70;99.90
7240;DHT22;3661;53.288;10.458;2022-11-21T13:04:40;4.70;99.90
7240;DHT22;3661;53.288;10.458;2022-11-21T13:07:16;4.70;99.90
7240;DHT22;3661;53.288;10.458;2022-11-21T13:09:52;4.70;99.90
7240;DHT22;3661;53.288;10.458;2022-11-21T13:12:32;4.70;99.90
7240;DHT22;3661;53.288;10.458;2022-11-21T13:15:17;4.60;99.90
7240;DHT22;3661;53.288;10.458;2022-11-21T13:17:53;4.60;99.90
7240;DHT22;3661;53.288;10.458;2022-11-21T13:20:30;4.60;99.90
7240;DHT22;3661;53.288;10.458;2022-11-21T13:23:34;4.60;99.90
7240;DHT22;3661;53.288;10.458;2022-11-21T13:29:16;4.50;99.90
7240;DHT22;3661;53.288;10.458;2022-11-21T13:31:49;4.50;99.90
7240;DHT22;3661;53.288;10.458;2022-11-21T13:34:37;4.50;99.90
7240;DHT22;3661;53.288;10.458;2022-11-21T13:40:38;4.50;99.90
7240;DHT22;3661;53.288;10.458;2022-11-21T13:43:30;4.50;99.90
7240;DHT22;3661;53.288;10.458;2022-11-21T13:46:01;4.40;99.90
7240;DHT22;3661;53.288;10.458;2022-11-21T13:51:51;4.40;99.90
7240;DHT22;3661;53.288;10.458;2022-11-21T13:54:44;4.40;99.90
7240;DHT22;3661;53.288;10.458;2022-11-21T13:57:36;4.40;99.90
7240;DHT22;3661;53.288;10.458;2022-11-21T14:00:24;4.40;99.90
7240;DHT22;3661;53.288;10.458;2022-11-21T14:03:27;4.40;99.90
7240;DHT22;3661;53.288;10.458;2022-11-21T14:06:18;4.40;99.90
7240;DHT22;3661;53.288;10.458;2022-11-21T14:09:16;4.30;99.90
7240;DHT22;3661;53.288;10.458;2022-11-21T14:11:52;4.30;99.90
7240;DHT22;3661;53.288;10.458;2022-11-21T14:14:33;4.30;99.90
7240;DHT22;3661;53.288;10.458;2022-11-21T14:17:26;4.20;99.90
7240;DHT22;3661;53.288;10.458;2022-11-21T14:20:13;4.20;99.90
7240;DHT22;3661;53.288;10.458;2022-11-21T14:22:53;4.10;99.90
7240;DHT22;3661;53.288;10.458;2022-11-21T14:25:34;4.10;99.90
7240;DHT22;3661;53.288;10.458;2022-11-21T14:28:10;4.00;99.90
7240;DHT22;3661;53.288;10.458;2022-11-21T14:30:47;3.90;99.90
7240;DHT22;3661;53.288;10.458;2022-11-21T14:33:24;3.80;99.90
7240;DHT22;3661;53.288;10.458;2022-11-21T14:36:02;3.70;99.90
7240;DHT22;3661;53.288;10.458;2022-11-21T14:38:41;3.50;99.90
7240;DHT22;3661;53.288;10.458;2022-11-21T14:41:30;3.40;99.90
7240;DHT22;3661;53.288;10.458;2022-11-21T14:44:18;3.30;99.90
7240;DHT22;3661;53.288;10.458;2022-11-21T14:47:04;3.10;99.90
7240;DHT22;3661;53.288;10.458;2022-11-21T14:49:48;3.00;99.90
7240;DHT22;3661;53.288;10.458;2022-11-21T14:52:23;2.80;99.90
7240;DHT22;3661;53.288;10.458;2022-11-21T14:54:59;2.70;99.90
7240;DHT22;3661;53.288;10.458;2022-11-21T14:57:34;2.50;99.90
7240;DHT22;3661;53.288;10.458;2022-11-21T15:00:15;2.40;99.90
7240;DHT22;3661;53.288;10.458;2022-11-21T15:05:59;2.10;99.90
7240;DHT22;3661;53.288;10.458;2022-11-21T15:08:33;1.90;99.90
7240;DHT22;3661;53.288;10.458;2022-11-21T15:11:07;1.80;99.90
7240;DHT22;3661;53.288;10.458;2022-11-21T15:13:40;1.70;99.90
7240;DHT22;3661;53.288;10.458;2022-11-21T15:16:13;1.60;99.90
7240;DHT22;3661;53.288;10.458;2022-11-21T15:18:46;1.50;99.90
7240;DHT22;3661;53.288;10.458;2022-11-21T15:21:20;1.30;99.90
7240;DHT22;3661;53.288;10.458;2022-11-21T15:23:54;1.20;99.90
7240;DHT22;3661;53.288;10.458;2022-11-21T15:26:31;1.20;99.90
7240;DHT22;3661;53.288;10.458;2022-11-21T15:29:17;1.00;99.90
7240;DHT22;3661;53.288;10.458;2022-11-21T15:32:07;0.90;99.90
7240;DHT22;3661;53.288;10.458;2022-11-21T15:34:39;0.80;99.90
7240;DHT22;3661;53.288;10.458;2022-11-21T15:37:16;0.70;99.90
7240;DHT22;3661;53.288;10.458;2022-11-21T15:39:50;0.60;99.90
7240;DHT22;3661;53.288;10.458;2022-11-21T15:42:35;0.50;99.90
7240;DHT22;3661;53.288;10.458;2022-11-21T15:45:22;0.40;99.90
7240;DHT22;3661;53.288;10.458;2022-11-21T15:47:56;0.30;99.90
7240;DHT22;3661;53.288;10.458;2022-11-21T15:50:28;0.10;99.90
7240;DHT22;3661;53.288;10.458;2022-11-21T15:53:02;0.10;99.90
7240;DHT22;3661;53.288;10.458;2022-11-21T15:55:35;0.00;99.90
7240;DHT22;3661;53.288;10.458;2022-11-21T15:58:07;-0.10;99.90
7240;DHT22;3661;53.288;10.458;2022-11-21T16:00:39;-0.20;99.90
7240;DHT22;3661;53.288;10.458;2022-11-21T16:03:11;-0.30;99.90
7240;DHT22;3661;53.288;10.458;2022-11-21T16:05:43;-0.40;99.90
7240;DHT22;3661;53.288;10.458;2022-11-21T16:08:17;-0.40;99.90
7240;DHT22;3661;53.288;10.458;2022-11-21T16:10:49;-0.50;99.90
7240;DHT22;3661;53.288;10.458;2022-11-21T16:13:23;-0.50;99.90
7240;DHT22;3661;53.288;10.458;2022-11-21T16:15:58;-0.60;99.90
7240;DHT22;3661;53.288;10.458;2022-11-21T16:18:31;-0.60;99.90
7240;DHT22;3661;53.288;10.458;2022-11-21T16:21:05;-0.70;99.90
7240;DHT22;3661;53.288;10.458;2022-11-21T16:23:40;-0.70;99.90
7240;DHT22;3661;53.288;10.458;2022-11-21T16:26:12;-0.80;99.90
7240;DHT22;3661;53.288;10.458;2022-11-21T16:28:45;-0.90;99.90
7240;DHT22;3661;53.288;10.458;2022-11-21T16:31:18;-0.90;99.90
7240;DHT22;3661;53.288;10.458;2022-11-21T16:33:51;-1.00;99.90
7240;DHT22;3661;53.288;10.458;2022-11-21T16:36:24;-1.00;99.90
7240;DHT22;3661;53.288;10.458;2022-11-21T16:38:58;-1.10;99.90
7240;DHT22;3661;53.288;10.458;2022-11-21T16:41:32;-1.20;99.90
7240;DHT22;3661;53.288;10.458;2022-11-21T16:44:10;-1.20;99.90
7240;DHT22;3661;53.288;10.458;2022-11-21T16:46:45;-1.20;99.90
7240;DHT22;3661;53.288;10.458;2022-11-21T16:49:18;-1.30;99.90
7240;DHT22;3661;53.288;10.458;2022-11-21T16:51:51;-1.30;99.90
7240;DHT22;3661;53.288;10.458;2022-11-21T16:54:35;-1.40;99.90
7240;DHT22;3661;53.288;10.458;2022-11-21T16:57:08;-1.40;99.90
7240;DHT22;3661;53.288;10.458;2022-11-21T16:59:40;-1.50;99.90
7240;DHT22;3661;53.288;10.458;2022-11-21T17:02:12;-1.50;99.90
7240;DHT22;3661;53.288;10.458;2022-11-21T17:04:44;-1.50;99.90
7240;DHT22;3661;53.288;10.458;2022-11-21T17:07:17;-1.60;99.90